Time,TemperatureF,DewpointF,PressureIn,WindDirection,WindDirectionDegrees,WindSpeedMPH,WindSpeedGustMPH,Humidity,HourlyPrecipIn,Conditions,Clouds,dailyrainin,SoftwareType,DateUTC
2013-04-02 00:00:00,37.5,27.8,30.10,ENE,58,6.0,15.0,68,0.00,CLR,,0.00,WeatherDisplay:10.37,2013-04-01 23:00:00,
2013-04-02 00:15:00,37.7,27.7,30.10,ENE,73,5.0,14.0,67,0.00,CLR,,0.00,WeatherDisplay:10.37,2013-04-01 23:15:00,
2013-04-02 00:30:00,37.8,27.8,30.10,ENE,68,7.0,15.0,67,0.00,CLR,,0.00,WeatherDisplay:10.37,2013-04-01 23:30:00,
2013-04-02 00:45:00,37.9,27.9,30.10,East,79,7.0,12.0,67,0.00,CLR,,0.00,WeatherDisplay:10.37,2013-04-01 23:45:00,
2013-04-02 01:00:00,37.9,27.5,30.10,NE,48,3.0,12.0,66,0.00,CLR,,0.00,WeatherDisplay:10.37,2013-04-02 00:00:00,
2013-04-02 01:15:00,38.0,28.0,30.10,NE,52,7.0,13.0,67,0.00,CLR,,0.00,WeatherDisplay:10.37,2013-04-02 00:15:00,
2013-04-02 01:30:00,38.1,27.7,30.10,ENE,64,6.0,14.0,66,0.00,CLR,,0.00,WeatherDisplay:10.37,2013-04-02 00:30:00,
2013-04-02 01:45:00,37.8,28.5,30.10,NE,47,3.0,8.0,69,0.00,CLR,,0.00,WeatherDisplay:10.37,2013-04-02 00:45:00,
2013-04-02 02:00:00,37.7,28.4,30.11,NE,46,5.0,9.0,69,0.00,CLR,,0.00,WeatherDisplay:10.37,2013-04-02 01:00:00,
2013-04-02 02:15:00,37.5,28.2,30.11,NE,47,2.0,6.0,69,0.00,CLR,,0.00,WeatherDisplay:10.37,2013-04-02 01:15:00,
2013-04-02 02:30:00,37.6,28.3,30.11,NE,55,5.0,10.0,69,0.00,CLR,,0.00,WeatherDisplay:10.37,2013-04-02 01:30:00,
2013-04-02 02:45:00,37.4,28.2,30.11,NE,39,5.0,9.0,69,0.00,CLR,,0.00,WeatherDisplay:10.37,2013-04-02 01:45:00,
2013-04-02 03:00:00,36.7,28.2,30.11,NE,38,6.0,9.0,71,0.00,CLR,,0.00,WeatherDisplay:10.37,2013-04-02 02:00:00,
2013-04-02 03:15:00,37.0,28.1,30.11,NE,47,2.0,14.0,70,0.00,CLR,,0.00,WeatherDisplay:10.37,2013-04-02 02:15:00,
2013-04-02 03:30:00,36.9,28.0,30.11,NE,43,3.0,8.0,70,0.00,CLR,,0.00,WeatherDisplay:10.37,2013-04-02 02:30:00,
2013-04-02 03:45:00,36.7,27.8,30.11,NE,42,2.0,6.0,70,0.00,CLR,,0.00,WeatherDisplay:10.37,2013-04-02 02:45:00,
2013-04-02 04:00:00,36.9,27.7,30.11,NE,48,3.0,7.0,69,0.00,CLR,,0.00,WeatherDisplay:10.37,2013-04-02 03:00:00,
2013-04-02 04:15:00,37.0,27.4,30.11,NE,46,3.0,9.0,68,0.00,CLR,,0.00,WeatherDisplay:10.37,2013-04-02 03:15:00,
2013-04-02 04:30:00,36.6,27.8,30.11,NE,44,2.0,12.0,70,0.00,CLR,,0.00,WeatherDisplay:10.37,2013-04-02 03:30:00,
2013-04-02 04:45:00,36.5,27.7,30.11,NE,35,5.0,7.0,70,0.00,CLR,,0.00,WeatherDisplay:10.37,2013-04-02 03:45:00,
2013-04-02 05:00:00,36.5,27.6,30.10,NE,38,1.0,7.0,70,0.00,CLR,,0.00,WeatherDisplay:10.37,2013-04-02 04:00:00,
2013-04-02 05:15:00,36.5,27.7,30.10,NE,41,3.0,7.0,70,0.00,CLR,,0.00,WeatherDisplay:10.37,2013-04-02 04:15:00,
2013-04-02 05:30:00,36.5,27.6,30.11,NE,36,2.0,7.0,70,0.00,CLR,,0.00,WeatherDisplay:10.37,2013-04-02 04:30:00,
2013-04-02 05:45:00,36.0,27.5,30.11,NE,37,2.0,5.0,71,0.00,CLR,,0.00,WeatherDisplay:10.37,2013-04-02 04:45:00,
2013-04-02 06:00:00,35.2,27.1,30.11,NNE,18,2.0,5.0,72,0.00,CLR,,0.00,WeatherDisplay:10.37,2013-04-02 05:00:00,
2013-04-02 06:15:00,34.4,27.0,30.11,NNE,29,2.0,6.0,74,0.00,CLR,,0.00,WeatherDisplay:10.37,2013-04-02 05:15:00,
2013-04-02 06:30:00,33.9,27.1,30.11,NNE,27,1.0,6.0,76,0.00,CLR,,0.00,WeatherDisplay:10.37,2013-04-02 05:30:00,
2013-04-02 06:45:00,33.6,26.8,30.11,NNE,27,2.0,8.0,76,0.00,CLR,,0.00,WeatherDisplay:10.37,2013-04-02 05:45:00,
2013-04-02 07:00:00,33.4,27.0,30.11,NNE,17,5.0,8.0,77,0.00,CLR,,0.00,WeatherDisplay:10.37,2013-04-02 06:00:00,
2013-04-02 07:15:00,33.3,26.9,30.12,NNE,12,3.0,8.0,77,0.00,CLR,,0.00,WeatherDisplay:10.37,2013-04-02 06:15:00,
2013-04-02 07:30:00,33.2,27.1,30.12,NNE,29,2.0,5.0,78,0.00,CLR,,0.00,WeatherDisplay:10.37,2013-04-02 06:30:00,
2013-04-02 07:45:00,33.3,27.2,30.13,NE,38,2.0,7.0,78,0.00,CLR,,0.00,WeatherDisplay:10.37,2013-04-02 06:45:00,
2013-04-02 08:00:00,33.8,27.7,30.13,NNE,24,3.0,8.0,78,0.00,CLR,,0.00,WeatherDisplay:10.37,2013-04-02 07:00:00,
2013-04-02 08:15:00,34.4,27.9,30.13,NNE,16,3.0,9.0,77,0.00,CLR,,0.00,WeatherDisplay:10.37,2013-04-02 07:15:00,
2013-04-02 08:30:00,34.9,27.8,30.14,NNE,21,5.0,10.0,75,0.00,CLR,,0.00,WeatherDisplay:10.37,2013-04-02 07:30:00,
2013-04-02 08:45:00,35.3,28.2,30.14,NNE,15,6.0,12.0,75,0.00,CLR,,0.00,WeatherDisplay:10.37,2013-04-02 07:45:00,
2013-04-02 09:00:00,35.8,28.6,30.14,NNE,14,5.0,9.0,75,0.00,CLR,,0.00,WeatherDisplay:10.37,2013-04-02 08:00:00,
2013-04-02 09:15:00,36.3,28.8,30.15,NNE,14,5.0,10.0,74,0.00,CLR,,0.00,WeatherDisplay:10.37,2013-04-02 08:15:00,
2013-04-02 09:30:00,36.9,29.1,30.15,NNE,26,1.0,7.0,73,0.00,CLR,,0.00,WeatherDisplay:10.37,2013-04-02 08:30:00,
2013-04-02 09:45:00,37.5,29.3,30.16,NNE,17,2.0,9.0,72,0.00,CLR,,0.00,WeatherDisplay:10.37,2013-04-02 08:45:00,
2013-04-02 10:00:00,37.9,29.3,30.16,North,356,1.0,9.0,71,0.00,CLR,,0.00,WeatherDisplay:10.37,2013-04-02 09:00:00,
2013-04-02 10:15:00,38.6,30.0,30.16,NE,39,5.0,8.0,71,0.00,CLR,,0.00,WeatherDisplay:10.37,2013-04-02 09:15:00,
2013-04-02 10:30:00,39.0,30.4,30.16,NNE,33,3.0,9.0,71,0.00,CLR,,0.00,WeatherDisplay:10.37,2013-04-02 09:30:00,
2013-04-02 10:45:00,39.1,30.4,30.16,NE,56,5.0,8.0,71,0.00,CLR,,0.00,WeatherDisplay:10.37,2013-04-02 09:45:00,
2013-04-02 11:00:00,39.7,31.4,30.16,NE,52,2.0,10.0,72,0.00,CLR,,0.00,WeatherDisplay:10.37,2013-04-02 10:00:00,
2013-04-02 11:15:00,40.3,32.0,30.16,ENE,57,3.0,10.0,72,0.00,CLR,,0.00,WeatherDisplay:10.37,2013-04-02 10:15:00,
2013-04-02 11:30:00,40.9,32.6,30.16,South,182,2.0,5.0,72,0.00,CLR,,0.00,WeatherDisplay:10.37,2013-04-02 10:30:00,
2013-04-02 11:45:00,40.6,32.3,30.17,South,190,2.0,5.0,72,0.00,CLR,,0.00,WeatherDisplay:10.37,2013-04-02 10:45:00,
2013-04-02 12:00:00,41.0,33.0,30.17,SSW,196,2.0,5.0,73,0.00,CLR,,0.00,WeatherDisplay:10.37,2013-04-02 11:00:00,
2013-04-02 12:15:00,42.1,29.2,30.17,ENE,75,7.0,15.0,60,0.00,CLR,,0.00,WeatherDisplay:10.37,2013-04-02 11:15:00,
2013-04-02 12:30:00,42.5,26.6,30.17,ENE,61,12.0,16.0,53,0.00,CLR,,0.00,WeatherDisplay:10.37,2013-04-02 11:30:00,
2013-04-02 12:45:00,42.9,26.5,30.17,NE,52,6.0,16.0,52,0.00,CLR,,0.00,WeatherDisplay:10.37,2013-04-02 11:45:00,
2013-04-02 13:00:00,44.0,26.5,30.17,NE,50,5.0,15.0,50,0.00,CLR,,0.00,WeatherDisplay:10.37,2013-04-02 12:00:00,
2013-04-02 13:15:00,43.6,26.6,30.17,NE,54,9.0,15.0,51,0.00,CLR,,0.00,WeatherDisplay:10.37,2013-04-02 12:15:00,
2013-04-02 13:30:00,43.1,28.1,30.17,ENE,72,7.0,15.0,55,0.00,CLR,,0.00,WeatherDisplay:10.37,2013-04-02 12:30:00,
2013-04-02 13:45:00,42.7,32.5,30.18,ENE,68,9.0,17.0,67,0.00,CLR,,0.00,WeatherDisplay:10.37,2013-04-02 12:45:00,
2013-04-02 14:00:00,42.3,33.9,30.18,ENE,73,7.0,14.0,72,0.00,CLR,,0.00,WeatherDisplay:10.37,2013-04-02 13:00:00,
2013-04-02 14:15:00,42.1,34.1,30.18,ENE,62,7.0,13.0,73,0.00,CLR,,0.00,WeatherDisplay:10.37,2013-04-02 13:15:00,
2013-04-02 14:30:00,42.9,31.6,30.17,ENE,71,8.0,16.0,64,0.00,CLR,,0.00,WeatherDisplay:10.37,2013-04-02 13:30:00,
2013-04-02 15:00:00,43.2,31.1,30.17,East,81,8.0,14.0,62,0.00,CLR,,0.00,WeatherDisplay:10.37,2013-04-02 14:00:00,
2013-04-02 15:30:00,41.5,35.2,30.18,East,79,6.0,15.0,78,0.00,CLR,,0.00,WeatherDisplay:10.37,2013-04-02 14:30:00,
2013-04-02 15:45:00,40.5,35.4,30.18,East,84,6.0,13.0,82,0.00,CLR,,0.00,WeatherDisplay:10.37,2013-04-02 14:45:00,
2013-04-02 16:00:00,40.7,35.0,30.18,ENE,74,7.0,15.0,80,0.00,CLR,,0.00,WeatherDisplay:10.37,2013-04-02 15:00:00,
2013-04-02 16:15:00,40.9,35.2,30.18,ENE,63,7.0,16.0,80,0.00,CLR,,0.00,WeatherDisplay:10.37,2013-04-02 15:15:00,
2013-04-02 16:30:00,40.9,33.2,30.18,NE,55,6.0,14.0,74,0.00,CLR,,0.00,WeatherDisplay:10.37,2013-04-02 15:30:00,
2013-04-02 16:45:00,41.1,32.8,30.18,ENE,57,6.0,15.0,72,0.00,CLR,,0.00,WeatherDisplay:10.37,2013-04-02 15:45:00,
2013-04-02 17:00:00,41.5,33.1,30.18,NE,55,7.0,16.0,72,0.00,CLR,,0.00,WeatherDisplay:10.37,2013-04-02 16:00:00,
2013-04-02 17:15:00,41.3,34.0,30.18,ENE,60,8.0,15.0,75,0.00,CLR,,0.00,WeatherDisplay:10.37,2013-04-02 16:15:00,
2013-04-02 17:30:00,41.3,33.3,30.18,ENE,64,6.0,15.0,73,0.00,CLR,,0.00,WeatherDisplay:10.37,2013-04-02 16:30:00,
2013-04-02 18:00:00,41.0,35.6,30.19,ENE,58,6.0,14.0,81,0.00,CLR,,0.00,WeatherDisplay:10.37,2013-04-02 17:00:00,
2013-04-02 18:30:00,40.6,35.5,30.19,ENE,63,6.0,12.0,82,0.00,CLR,,0.00,WeatherDisplay:10.37,2013-04-02 17:30:00,
2013-04-02 18:45:00,40.7,35.9,30.19,ENE,65,8.0,12.0,83,0.00,CLR,,0.00,WeatherDisplay:10.37,2013-04-02 17:45:00,
2013-04-02 19:00:00,39.7,35.6,30.20,ENE,62,7.0,12.0,85,0.00,CLR,,0.00,WeatherDisplay:10.37,2013-04-02 18:00:00,
2013-04-02 19:30:00,39.1,34.7,30.20,ENE,62,5.0,10.0,84,0.00,CLR,,0.00,WeatherDisplay:10.37,2013-04-02 18:30:00,
2013-04-02 19:45:00,39.0,34.0,30.21,ENE,60,6.0,10.0,82,0.00,CLR,,0.00,WeatherDisplay:10.37,2013-04-02 18:45:00,
2013-04-02 20:00:00,38.9,34.2,30.21,ENE,65,5.0,10.0,83,0.00,CLR,,0.00,WeatherDisplay:10.37,2013-04-02 19:00:00,
2013-04-02 20:15:00,38.7,34.3,30.21,NE,49,5.0,9.0,84,0.00,CLR,,0.00,WeatherDisplay:10.37,2013-04-02 19:15:00,
2013-04-02 20:30:00,38.4,34.0,30.21,NE,53,3.0,9.0,84,0.00,CLR,,0.00,WeatherDisplay:10.37,2013-04-02 19:30:00,
2013-04-02 21:00:00,37.9,33.5,30.22,NE,38,3.0,9.0,84,0.00,CLR,,0.00,WeatherDisplay:10.37,2013-04-02 20:00:00,
2013-04-02 21:15:00,37.5,33.1,30.23,NE,39,2.0,7.0,84,0.00,CLR,,0.00,WeatherDisplay:10.37,2013-04-02 20:15:00,
2013-04-02 21:30:00,36.9,32.8,30.23,NE,43,2.0,6.0,85,0.00,CLR,,0.00,WeatherDisplay:10.37,2013-04-02 20:30:00,
2013-04-02 21:45:00,36.5,32.4,30.23,NE,36,3.0,7.0,85,0.00,CLR,,0.00,WeatherDisplay:10.37,2013-04-02 20:45:00,
2013-04-02 22:00:00,36.2,32.1,30.23,NE,35,3.0,8.0,85,0.00,CLR,,0.00,WeatherDisplay:10.37,2013-04-02 21:00:00,
2013-04-02 22:15:00,36.2,32.2,30.24,NE,42,3.0,9.0,85,0.00,CLR,,0.00,WeatherDisplay:10.37,2013-04-02 21:15:00,
2013-04-02 22:30:00,36.2,32.4,30.24,NNE,32,3.0,8.0,86,0.00,CLR,,0.00,WeatherDisplay:10.37,2013-04-02 21:30:00,
2013-04-02 22:45:00,36.0,32.2,30.24,NNE,33,3.0,7.0,86,0.00,CLR,,0.00,WeatherDisplay:10.37,2013-04-02 21:45:00,
2013-04-02 23:00:00,35.9,32.1,30.24,NE,37,5.0,7.0,86,0.00,CLR,,0.00,WeatherDisplay:10.37,2013-04-02 22:00:00,
2013-04-02 23:15:00,35.9,32.1,30.24,NNE,30,3.0,7.0,86,0.00,CLR,,0.00,WeatherDisplay:10.37,2013-04-02 22:15:00,
2013-04-02 23:30:00,35.6,31.9,30.25,NE,34,2.0,7.0,86,0.00,CLR,,0.00,WeatherDisplay:10.37,2013-04-02 22:30:00,
2013-04-02 23:45:00,35.3,31.8,30.25,NNE,30,3.0,6.0,87,0.00,CLR,,0.00,WeatherDisplay:10.37,2013-04-02 22:45:00,